createdAt,value
2022-09-28T00:01:07.655Z,97806.55
2022-09-28T00:04:09.744Z,97809.47
2022-09-28T00:07:11.585Z,97806.14
2022-09-28T00:10:13.442Z,97804.84
2022-09-28T00:13:15.189Z,97798.80
2022-09-28T00:16:43.562Z,97794.88
2022-09-28T00:20:05.982Z,97795.13
2022-09-28T00:23:07.766Z,97792.76
2022-09-28T00:26:09.516Z,97797.39
2022-09-28T00:29:32.045Z,97791.25
2022-09-28T00:32:54.204Z,97789.27
2022-09-28T00:36:19.037Z,97787.27
2022-09-28T00:39:41.651Z,97787.38
2022-09-28T00:42:45.201Z,97784.85
2022-09-28T00:45:53.896Z,97778.45
2022-09-28T00:49:07.551Z,97782.69
2022-09-28T00:52:12.605Z,97783.59
2022-09-28T00:55:22.039Z,97784.25
2022-09-28T00:58:34.214Z,97785.98
2022-09-28T01:01:37.115Z,97785.30
2022-09-28T01:04:39.938Z,97786.20
2022-09-28T01:07:44.065Z,97788.65
2022-09-28T01:10:45.853Z,97779.18
2022-09-28T01:13:48.888Z,97782.52
2022-09-28T01:17:09.728Z,97783.57
2022-09-28T01:20:32.745Z,97782.98
2022-09-28T01:23:49.385Z,97785.26
2022-09-28T01:27:14.019Z,97784.55
2022-09-28T01:30:18.326Z,97785.79
2022-09-28T01:33:26.567Z,97789.89
2022-09-28T01:36:35.157Z,97791.21
2022-09-28T01:39:40.678Z,97791.45
2022-09-28T01:42:45.126Z,97792.59
2022-09-28T01:45:50.160Z,97787.18
2022-09-28T01:48:56.701Z,97788.52
2022-09-28T01:52:13.697Z,97785.50
2022-09-28T01:55:25.390Z,97792.26
2022-09-28T01:58:46.885Z,97799.13
2022-09-28T02:02:04.053Z,97800.00
2022-09-28T02:05:13.434Z,97802.42
2022-09-28T02:08:25.895Z,97801.49
2022-09-28T02:11:27.699Z,97806.41
2022-09-28T02:14:30.309Z,97811.86
2022-09-28T02:17:32.092Z,97815.58
2022-09-28T02:20:34.946Z,97820.65
2022-09-28T02:23:39.770Z,97823.63
2022-09-28T02:26:43.418Z,97824.15
2022-09-28T02:29:45.158Z,97823.13
2022-09-28T02:32:49.333Z,97825.50
2022-09-28T02:35:51.340Z,97829.55
2022-09-28T02:38:53.613Z,97829.13
2022-09-28T02:42:05.553Z,97831.56
2022-09-28T02:45:36.924Z,97836.27
2022-09-28T02:49:20.409Z,97837.91
2022-09-28T02:52:47.998Z,97838.20
2022-09-28T02:56:05.494Z,97837.14
2022-09-28T02:59:39.541Z,97833.16
2022-09-28T03:02:58.966Z,97834.86
2022-09-28T03:06:05.060Z,97838.70
2022-09-28T03:09:36.121Z,97838.08
2022-09-28T03:12:38.644Z,97841.32
2022-09-28T03:15:46.453Z,97838.72
2022-09-28T03:18:50.172Z,97837.95
2022-09-28T03:21:52.149Z,97840.97
2022-09-28T03:24:54.063Z,97838.27
2022-09-28T03:27:55.738Z,97840.67
2022-09-28T03:30:57.413Z,97843.16
2022-09-28T03:33:59.140Z,97837.73
2022-09-28T03:37:00.836Z,97828.27
2022-09-28T03:40:02.813Z,97827.65
2022-09-28T03:43:04.497Z,97826.86
2022-09-28T03:46:06.394Z,97834.50
2022-09-28T03:49:10.221Z,97841.16
2022-09-28T03:52:13.267Z,97841.20
2022-09-28T03:55:15.057Z,97849.79
2022-09-28T03:58:17.693Z,97843.56
2022-09-28T04:01:19.533Z,97849.01
2022-09-28T04:04:21.248Z,97847.41
2022-09-28T04:07:24.586Z,97845.92
2022-09-28T04:10:28.678Z,97849.91
2022-09-28T04:13:30.926Z,97851.45
2022-09-28T04:16:32.645Z,97854.90
2022-09-28T04:19:34.378Z,97854.48
2022-09-28T04:22:37.760Z,97853.69
2022-09-28T04:25:39.884Z,97852.59
2022-09-28T04:29:05.467Z,97850.19
2022-09-28T04:32:08.211Z,97852.60
2022-09-28T04:35:11.974Z,97855.67
2022-09-28T04:38:14.009Z,97848.73
2022-09-28T04:41:15.812Z,97851.11
2022-09-28T04:44:17.771Z,97854.95
2022-09-28T04:47:19.490Z,97849.77
2022-09-28T04:50:21.230Z,97853.48
2022-09-28T04:53:23.281Z,97861.54
2022-09-28T04:56:25.053Z,97859.38
2022-09-28T04:59:26.722Z,97863.98
2022-09-28T05:02:29.658Z,97869.98
2022-09-28T05:05:31.416Z,97870.17
2022-09-28T05:08:35.404Z,97873.65
2022-09-28T05:11:37.075Z,97877.62
2022-09-28T05:14:38.770Z,97877.67
2022-09-28T05:17:40.542Z,97882.20
2022-09-28T05:20:42.560Z,97885.83
2022-09-28T05:23:47.984Z,97883.77
2022-09-28T05:26:49.733Z,97887.35
2022-09-28T05:29:51.487Z,97890.80
2022-09-28T05:32:53.803Z,97890.38
2022-09-28T05:36:00.758Z,97893.34
2022-09-28T05:39:04.257Z,97893.01
2022-09-28T05:42:07.566Z,97883.64
2022-09-28T05:45:10.411Z,97875.94
2022-09-28T05:48:12.306Z,97874.63
2022-09-28T05:51:13.941Z,97874.94
2022-09-28T05:54:15.697Z,97872.90
2022-09-28T05:57:17.398Z,97874.79
2022-09-28T06:00:19.350Z,97875.16
2022-09-28T06:03:21.432Z,97874.26
2022-09-28T06:06:23.219Z,97880.30
2022-09-28T06:09:26.114Z,97877.30
2022-09-28T06:12:28.451Z,97883.34
2022-09-28T06:15:32.362Z,97885.85
2022-09-28T06:18:34.537Z,97890.77
2022-09-28T06:21:36.431Z,97890.84
2022-09-28T06:24:38.096Z,97887.32
2022-09-28T06:27:42.634Z,97890.08
2022-09-28T06:30:45.175Z,97893.46
2022-09-28T06:33:48.562Z,97894.91
2022-09-28T06:36:50.272Z,97889.98
2022-09-28T06:39:53.435Z,97884.26
2022-09-28T06:43:00.601Z,97883.73
2022-09-28T06:46:03.307Z,97876.44
2022-09-28T06:49:09.371Z,97880.41
2022-09-28T06:52:12.053Z,97883.80
2022-09-28T06:55:13.886Z,97877.81
2022-09-28T06:58:20.759Z,97880.80
2022-09-28T07:01:22.565Z,97873.65
2022-09-28T07:04:24.272Z,97869.06
2022-09-28T07:07:26.948Z,97865.73
2022-09-28T07:10:29.591Z,97868.18
2022-09-28T07:13:50.944Z,97872.64
2022-09-28T07:17:11.503Z,97873.52
2022-09-28T07:20:19.121Z,97874.72
2022-09-28T07:23:21.449Z,97877.42
2022-09-28T07:26:24.713Z,97887.55
2022-09-28T07:29:26.851Z,97897.67
2022-09-28T07:32:28.681Z,97901.83
2022-09-28T07:35:30.598Z,97903.75
2022-09-28T07:38:35.461Z,97900.35
2022-09-28T07:41:39.668Z,97894.88
2022-09-28T07:44:41.270Z,97885.08
2022-09-28T07:47:43.311Z,97878.46
2022-09-28T07:50:52.502Z,97880.63
2022-09-28T07:53:56.847Z,97888.05
2022-09-28T07:56:58.641Z,97888.07
2022-09-28T08:00:02.268Z,97891.02
2022-09-28T08:03:04.287Z,97888.70
2022-09-28T08:06:07.675Z,97893.27
2022-09-28T08:09:09.484Z,97887.32
2022-09-28T08:12:13.358Z,97890.20
2022-09-28T08:15:15.712Z,97887.56
2022-09-28T08:18:17.771Z,97885.64
2022-09-28T08:21:38.596Z,97888.45
2022-09-28T08:24:40.399Z,97887.55
2022-09-28T08:27:42.100Z,97893.05
2022-09-28T08:30:47.701Z,97893.94
2022-09-28T08:33:54.363Z,97887.54
2022-09-28T08:36:59.265Z,97887.05
2022-09-28T08:40:01.103Z,97888.38
2022-09-28T08:43:07.196Z,97884.42
2022-09-28T08:46:10.194Z,97882.98
2022-09-28T08:49:42.398Z,97878.73
2022-09-28T08:52:47.120Z,97878.00
2022-09-28T08:55:49.848Z,97878.90
2022-09-28T08:58:56.640Z,97874.25
2022-09-28T09:02:04.117Z,97876.41
2022-09-28T09:05:14.903Z,97877.69
2022-09-28T09:08:30.148Z,97874.89
2022-09-28T09:11:48.854Z,97873.67
2022-09-28T09:15:05.072Z,97877.86
2022-09-28T09:18:25.440Z,97874.55
2022-09-28T09:21:41.795Z,97872.33
2022-09-28T09:24:51.571Z,97869.18
2022-09-28T09:28:12.154Z,97867.39
2022-09-28T09:31:35.489Z,97869.19
2022-09-28T09:35:15.046Z,97870.39
2022-09-28T09:38:35.634Z,97866.88
2022-09-28T09:41:55.949Z,97867.07
2022-09-28T09:45:12.284Z,97869.22
2022-09-28T09:48:39.217Z,97865.68
2022-09-28T09:51:56.267Z,97869.92
2022-09-28T09:55:05.622Z,97873.11
2022-09-28T09:58:18.181Z,97871.48
2022-09-28T10:01:23.516Z,97870.83
2022-09-28T10:04:28.126Z,97871.45
2022-09-28T10:07:41.405Z,97873.62
2022-09-28T10:10:54.609Z,97873.77
2022-09-28T10:13:56.970Z,97875.38
2022-09-28T10:16:58.894Z,97874.98
2022-09-28T10:20:00.841Z,97881.79
2022-09-28T10:23:05.092Z,97881.17
2022-09-28T10:26:16.608Z,97875.94
2022-09-28T10:29:23.218Z,97870.72
2022-09-28T10:32:27.730Z,97860.64
2022-09-28T10:35:31.793Z,97858.38
2022-09-28T10:38:34.050Z,97857.35
2022-09-28T10:41:49.277Z,97856.75
2022-09-28T10:45:13.880Z,97846.33
2022-09-28T10:48:22.612Z,97848.51
2022-09-28T10:52:00.129Z,97844.73
2022-09-28T10:55:03.565Z,97844.48
2022-09-28T10:58:26.122Z,97842.34
2022-09-28T11:01:33.086Z,97835.17
2022-09-28T11:04:40.520Z,97836.85
2022-09-28T11:07:47.538Z,97832.61
2022-09-28T11:11:02.678Z,97831.57
2022-09-28T11:14:04.722Z,97838.02
2022-09-28T11:17:26.473Z,97839.39
2022-09-28T11:20:33.442Z,97834.56
2022-09-28T11:23:35.273Z,97827.08
2022-09-28T11:26:42.405Z,97821.32
2022-09-28T11:29:47.039Z,97812.88
2022-09-28T11:32:48.983Z,97808.41
2022-09-28T11:36:00.264Z,97796.78
2022-09-28T11:39:08.582Z,97796.86
2022-09-28T11:42:19.641Z,97790.98
2022-09-28T11:45:27.464Z,97788.07
2022-09-28T11:48:40.645Z,97782.55
2022-09-28T11:51:43.543Z,97773.27
2022-09-28T11:54:52.705Z,97774.66
2022-09-28T11:58:04.966Z,97770.00
2022-09-28T12:01:21.180Z,97770.86
2022-09-28T12:04:39.362Z,97765.77
2022-09-28T12:07:54.443Z,97772.23
2022-09-28T12:11:09.790Z,97763.38
2022-09-28T12:14:20.718Z,97755.55
2022-09-28T12:17:35.728Z,97757.48
2022-09-28T12:20:43.063Z,97756.77
2022-09-28T12:23:45.004Z,97749.74
2022-09-28T12:27:28.366Z,97752.86
2022-09-28T12:30:33.628Z,97752.05
2022-09-28T12:33:36.790Z,97750.88
2022-09-28T12:36:49.098Z,97747.40
2022-09-28T12:40:23.629Z,97741.65
2022-09-28T12:43:33.486Z,97738.45
2022-09-28T12:46:54.040Z,97732.55
2022-09-28T12:53:41.676Z,97747.19
2022-09-28T12:57:02.169Z,97743.06
2022-09-28T13:00:23.329Z,97737.76
2022-09-28T13:03:50.070Z,97724.05
2022-09-28T13:07:03.427Z,97715.62
2022-09-28T13:10:33.224Z,97711.30
2022-09-28T13:13:49.554Z,97703.48
2022-09-28T13:17:04.350Z,97696.07
2022-09-28T13:20:17.769Z,97698.84
2022-09-28T13:23:39.578Z,97702.95
2022-09-28T13:26:44.908Z,97702.02
2022-09-28T13:29:49.245Z,97707.94
2022-09-28T13:32:51.621Z,97709.38
2022-09-28T13:35:53.339Z,97710.31
2022-09-28T13:38:56.950Z,97707.10
2022-09-28T13:42:00.173Z,97698.58
2022-09-28T13:45:11.310Z,97698.27
2022-09-28T13:48:16.430Z,97695.09
2022-09-28T13:51:33.234Z,97695.08
2022-09-28T13:54:58.073Z,97684.89
2022-09-28T13:58:06.595Z,97684.39
2022-09-28T14:01:23.358Z,97684.59
2022-09-28T14:04:56.498Z,97676.05
2022-09-28T14:08:11.496Z,97663.08
2022-09-28T14:11:40.649Z,97686.97
2022-09-28T14:14:52.027Z,97690.34
2022-09-28T14:17:54.737Z,97693.36
2022-09-28T14:21:21.770Z,97695.59
2022-09-28T14:24:30.247Z,97711.36
2022-09-28T14:28:01.645Z,97714.88
2022-09-28T14:31:24.920Z,97707.88
2022-09-28T14:34:41.882Z,97711.85
2022-09-28T14:38:17.922Z,97700.95
2022-09-28T14:41:31.410Z,97705.32
2022-09-28T14:45:06.094Z,97707.23
2022-09-28T14:48:15.742Z,97713.98
2022-09-28T14:51:26.803Z,97705.09
2022-09-28T14:54:37.957Z,97690.32
2022-09-28T14:57:41.689Z,97688.29
2022-09-28T15:00:44.367Z,97678.38
2022-09-28T15:03:52.390Z,97676.34
2022-09-28T15:06:54.629Z,97676.03
2022-09-28T15:09:57.858Z,97676.85
2022-09-28T15:13:01.939Z,97677.50
2022-09-28T15:16:07.344Z,97677.27
2022-09-28T15:19:33.286Z,97672.30
2022-09-28T15:22:36.299Z,97676.18
2022-09-28T15:25:38.010Z,97679.23
2022-09-28T15:28:44.963Z,97675.94
2022-09-28T15:31:48.991Z,97677.84
2022-09-28T15:34:54.755Z,97672.94
2022-09-28T15:37:56.558Z,97672.80
2022-09-28T15:40:58.722Z,97670.48
2022-09-28T15:44:12.382Z,97673.79
2022-09-28T15:47:16.384Z,97671.58
2022-09-28T15:50:28.025Z,97665.80
2022-09-28T15:53:31.361Z,97664.96
2022-09-28T15:56:50.976Z,97664.82
2022-09-28T15:59:57.063Z,97672.70
2022-09-28T16:03:08.946Z,97677.80
2022-09-28T16:06:11.001Z,97674.76
2022-09-28T16:09:31.681Z,97676.15
2022-09-28T16:12:36.236Z,97685.01
2022-09-28T16:15:38.248Z,97682.27
2022-09-28T16:18:40.625Z,97678.59
2022-09-28T16:21:45.237Z,97680.02
2022-09-28T16:24:55.839Z,97685.20
2022-09-28T16:27:57.554Z,97685.79
2022-09-28T16:31:07.642Z,97688.56
2022-09-28T16:34:19.923Z,97692.73
2022-09-28T16:37:31.779Z,97691.55
2022-09-28T16:40:33.900Z,97688.97
2022-09-28T16:43:36.642Z,97688.45
2022-09-28T16:46:39.178Z,97687.66
2022-09-28T16:49:41.129Z,97686.47
2022-09-28T16:53:02.334Z,97687.68
2022-09-28T16:56:04.932Z,97687.86
2022-09-28T16:59:19.113Z,97692.23
2022-09-28T17:05:48.561Z,97689.02
2022-09-28T17:08:50.183Z,97692.45
2022-09-28T17:11:57.045Z,97684.82
2022-09-28T17:15:00.371Z,97690.98
2022-09-28T17:18:02.773Z,97691.79
2022-09-28T17:21:06.900Z,97690.38
2022-09-28T17:24:08.571Z,97688.22
2022-09-28T17:27:15.685Z,97693.23
2022-09-28T17:30:20.234Z,97692.29
2022-09-28T17:33:24.101Z,97694.22
2022-09-28T17:36:27.011Z,97699.55
2022-09-28T17:39:28.765Z,97709.79
2022-09-28T17:42:30.384Z,97704.94
2022-09-28T17:45:33.319Z,97705.95
2022-09-28T17:48:35.372Z,97703.23
2022-09-28T17:51:37.872Z,97706.66
2022-09-28T17:54:39.636Z,97709.79
2022-09-28T17:57:41.418Z,97713.85
2022-09-28T18:00:44.342Z,97714.15
2022-09-28T18:03:46.582Z,97714.89
2022-09-28T18:06:48.167Z,97717.83
2022-09-28T18:09:56.743Z,97723.39
2022-09-28T18:12:58.417Z,97728.14
2022-09-28T18:16:00.184Z,97729.04
2022-09-28T18:19:02.190Z,97728.70
2022-09-28T18:22:03.838Z,97732.31
2022-09-28T18:25:07.014Z,97736.52
2022-09-28T18:28:09.237Z,97738.02
2022-09-28T18:31:14.478Z,97734.48
2022-09-28T18:34:16.804Z,97733.70
2022-09-28T18:37:18.648Z,97735.63
2022-09-28T18:40:20.585Z,97739.07
2022-09-28T18:43:25.112Z,97742.30
2022-09-28T18:46:28.193Z,97751.48
2022-09-28T18:49:30.914Z,97752.69
2022-09-28T18:52:36.319Z,97753.98
2022-09-28T18:55:42.305Z,97754.80
2022-09-28T18:58:45.355Z,97761.70
2022-09-28T19:01:47.181Z,97758.09
2022-09-28T19:04:49.014Z,97760.17
2022-09-28T19:07:51.045Z,97765.56
2022-09-28T19:10:52.685Z,97765.84
2022-09-28T19:13:55.539Z,97768.11
2022-09-28T19:16:57.367Z,97770.58
2022-09-28T19:19:59.052Z,97776.76
2022-09-28T19:23:00.896Z,97780.06
2022-09-28T19:26:04.666Z,97779.20
2022-09-28T19:29:06.541Z,97778.23
2022-09-28T19:32:08.233Z,97789.09
2022-09-28T19:35:09.978Z,97790.73
2022-09-28T19:38:11.859Z,97795.10
2022-09-28T19:41:39.347Z,97800.05
2022-09-28T19:44:46.510Z,97794.56
2022-09-28T19:47:49.077Z,97794.45
2022-09-28T19:51:07.340Z,97796.39
2022-09-28T19:54:10.946Z,97797.49
2022-09-28T19:57:14.618Z,97801.89
2022-09-28T20:00:16.961Z,97803.05
2022-09-28T20:03:18.712Z,97805.30
2022-09-28T20:06:20.369Z,97807.27
2022-09-28T20:09:22.026Z,97812.00
2022-09-28T20:12:23.841Z,97814.64
2022-09-28T20:15:25.611Z,97809.72
2022-09-28T20:18:27.626Z,97809.66
2022-09-28T20:21:29.866Z,97799.58
2022-09-28T20:24:32.204Z,97800.62
2022-09-28T20:27:33.857Z,97798.66
2022-09-28T20:30:37.392Z,97800.80
2022-09-28T20:33:39.739Z,97801.45
2022-09-28T20:36:43.176Z,97811.20
2022-09-28T20:39:45.316Z,97812.33
2022-09-28T20:42:46.969Z,97819.48
2022-09-28T20:45:50.642Z,97825.12
2022-09-28T20:48:55.108Z,97835.80
2022-09-28T20:51:56.836Z,97842.69
2022-09-28T20:54:58.612Z,97850.52
2022-09-28T20:58:04.290Z,97855.89
2022-09-28T21:01:18.018Z,97852.46
2022-09-28T21:04:19.942Z,97859.65
2022-09-28T21:07:21.681Z,97866.74
2022-09-28T21:10:23.530Z,97877.02
2022-09-28T21:13:25.911Z,97890.27
2022-09-28T21:16:29.644Z,97899.05
2022-09-28T21:19:31.988Z,97905.42
2022-09-28T21:22:33.700Z,97890.73
2022-09-28T21:25:35.464Z,97879.34
2022-09-28T21:28:38.230Z,97877.90
2022-09-28T21:31:47.880Z,97881.09
2022-09-28T21:34:50.514Z,97875.40
2022-09-28T21:37:52.229Z,97873.98
2022-09-28T21:40:55.894Z,97874.11
2022-09-28T21:43:57.788Z,97876.96
2022-09-28T21:46:59.409Z,97881.71
2022-09-28T21:50:01.388Z,97882.27
2022-09-28T21:53:03.241Z,97881.91
2022-09-28T21:56:07.643Z,97877.05
2022-09-28T21:59:09.321Z,97878.56
2022-09-28T22:02:11.033Z,97882.98
2022-09-28T22:05:13.150Z,97880.62
2022-09-28T22:08:14.880Z,97882.70
2022-09-28T22:11:22.329Z,97887.73
2022-09-28T22:14:24.098Z,97898.52
2022-09-28T22:17:25.759Z,97903.77
2022-09-28T22:20:27.757Z,97903.86
2022-09-28T22:23:30.495Z,97902.92
2022-09-28T22:26:34.370Z,97900.11
2022-09-28T22:29:36.100Z,97897.97
2022-09-28T22:32:37.956Z,97897.66
2022-09-28T22:35:39.662Z,97900.66
2022-09-28T22:38:41.527Z,97907.48
2022-09-28T22:41:43.905Z,97908.34
2022-09-28T22:44:45.564Z,97911.67
2022-09-28T22:47:47.304Z,97915.06
2022-09-28T22:50:49.940Z,97919.82
2022-09-28T22:53:51.702Z,97919.98
2022-09-28T22:56:53.447Z,97925.15
2022-09-28T22:59:55.082Z,97927.23
2022-09-28T23:02:57.225Z,97926.14
2022-09-28T23:06:21.274Z,97933.00
2022-09-28T23:09:22.995Z,97936.45
2022-09-28T23:12:24.706Z,97938.70
2022-09-28T23:15:27.864Z,97940.43
2022-09-28T23:18:32.238Z,97940.50
2022-09-28T23:21:34.545Z,97948.44
2022-09-28T23:24:36.236Z,97954.35
2022-09-28T23:27:37.989Z,97952.27
2022-09-28T23:30:39.981Z,97954.27
2022-09-28T23:33:41.895Z,97955.67
2022-09-28T23:36:43.524Z,97961.34
2022-09-28T23:39:46.342Z,97958.50
2022-09-28T23:42:48.107Z,97957.62
2022-09-28T23:45:49.718Z,97960.96
2022-09-28T23:48:51.581Z,97965.83
2022-09-28T23:51:53.569Z,97965.56
2022-09-28T23:54:55.305Z,97961.22
2022-09-28T23:57:58.235Z,97953.21
